Time;durP1;ratioP1;P1;durP2;ratioP2;P2;SDS_P1;SDS_P2;PMS_P1;PMS_P2;Temp;Humidity;BMP_temperature;BMP_pressure;BME280_temperature;BME280_humidity;BME280_pressure;Samples;Min_cycle;Max_cycle;Signal;HPM_P1;HPM_P2
2023/01/14 00:01:52;;;;;;;;;7.75;3.00;;;;;-147.17;100.00;-15917.19;5058375;28;51275;-59
2023/01/14 00:04:18;;;;;;;;;4.00;4.00;;;;;-147.17;100.00;-15917.19;5051906;28;51419;-59
2023/01/14 00:06:43;;;;;;;;;6.50;4.75;;;;;-147.17;100.00;-15917.19;5046709;28;50913;-59
2023/01/14 00:09:13;;;;;;;;;12.75;11.75;;;;;-147.17;100.00;-15917.19;5042543;28;51101;-59
2023/01/14 00:11:51;;;;;;;;;8.75;8.00;;;;;-147.17;100.00;-15917.19;5043837;28;51167;-59
2023/01/14 00:14:21;;;;;;;;;4.00;3.50;;;;;-147.17;100.00;-15917.19;5040190;28;51235;-58
2023/01/14 00:16:46;;;;;;;;;6.25;4.00;;;;;-147.17;100.00;-15917.19;5038051;28;53179;-59
2023/01/14 00:19:13;;;;;;;;;5.75;4.75;;;;;-147.17;100.00;-15917.19;5044935;28;51183;-58
2023/01/14 00:21:40;;;;;;;;;5.50;5.00;;;;;-147.17;100.00;-15917.19;5048523;28;51293;-59
2023/01/14 00:24:06;;;;;;;;;3.00;3.00;;;;;-147.17;100.00;-15917.19;5057086;28;51181;-59
2023/01/14 00:26:32;;;;;;;;;4.75;3.00;;;;;-147.17;100.00;-15917.19;5044383;28;51876;-59
2023/01/14 00:28:57;;;;;;;;;3.50;2.75;;;;;-147.17;100.00;-15917.19;5062604;28;51054;-59
2023/01/14 00:31:25;;;;;;;;;10.00;9.00;;;;;-147.17;100.00;-15917.19;5045212;27;51176;-59
2023/01/14 00:33:52;;;;;;;;;3.00;2.67;;;;;-147.17;100.00;-15917.19;5045999;28;51894;-59
2023/01/14 00:36:20;;;;;;;;;5.00;3.67;;;;;-147.17;100.00;-15917.19;5048958;28;51161;-58
2023/01/14 00:38:46;;;;;;;;;11.00;8.00;;;;;-147.17;100.00;-15917.19;5057665;28;51142;-58
2023/01/14 00:41:15;;;;;;;;;8.25;6.50;;;;;-147.17;100.00;-15917.19;5076902;27;51140;-60
2023/01/14 00:43:46;;;;;;;;;10.00;9.00;;;;;-147.17;100.00;-15917.19;5073281;28;51224;-58
2023/01/14 00:46:17;;;;;;;;;7.00;4.00;;;;;-147.17;100.00;-15917.19;5057604;27;52254;-58
2023/01/14 00:48:43;;;;;;;;;42.00;33.25;;;;;-147.17;100.00;-15917.19;5042517;28;51226;-59
2023/01/14 00:51:09;;;;;;;;;12.75;12.25;;;;;-147.17;100.00;-15917.19;5048902;28;51141;-58
2023/01/14 00:53:36;;;;;;;;;6.50;5.00;;;;;-147.17;100.00;-15917.19;5066466;27;51118;-58
2023/01/14 00:56:02;;;;;;;;;20.25;18.50;;;;;-147.17;100.00;-15917.19;5059722;28;51975;-58
2023/01/14 00:58:28;;;;;;;;;20.75;16.25;;;;;-147.17;100.00;-15917.19;5056059;28;51235;-59
2023/01/14 01:00:54;;;;;;;;;3.50;3.25;;;;;-147.17;100.00;-15917.19;5046342;28;51839;-59
2023/01/14 01:03:23;;;;;;;;;20.50;14.75;;;;;-147.17;100.00;-15917.19;5050544;28;51292;-59
2023/01/14 01:05:49;;;;;;;;;8.75;7.50;;;;;-147.17;100.00;-15917.19;5045640;28;51908;-57
2023/01/14 01:08:16;;;;;;;;;3.00;2.50;;;;;-147.17;100.00;-15917.19;5051144;28;51243;-58
2023/01/14 01:10:43;;;;;;;;;5.50;4.25;;;;;-147.17;100.00;-15917.19;5049360;28;52173;-59
2023/01/14 01:13:09;;;;;;;;;3.00;3.00;;;;;-147.17;100.00;-15917.19;5043466;28;51100;-58
2023/01/14 01:15:36;;;;;;;;;4.00;4.00;;;;;-147.17;100.00;-15917.19;5049044;28;54109;-58
2023/01/14 01:18:03;;;;;;;;;3.33;3.00;;;;;-147.17;100.00;-15917.19;5065878;28;51474;-59
2023/01/14 01:20:29;;;;;;;;;4.00;3.50;;;;;-147.17;100.00;-15917.19;5068250;27;51087;-59
2023/01/14 01:22:55;;;;;;;;;7.75;6.00;;;;;-147.17;100.00;-15917.19;5040331;28;51811;-59
2023/01/14 01:25:20;;;;;;;;;4.75;4.75;;;;;-147.17;100.00;-15917.19;5048909;28;52334;-58
2023/01/14 01:27:46;;;;;;;;;5.00;5.00;;;;;-147.17;100.00;-15917.19;5050910;28;51106;-58
2023/01/14 01:30:12;;;;;;;;;5.50;4.25;;;;;-147.17;100.00;-15917.19;5053995;28;51353;-58
2023/01/14 01:32:38;;;;;;;;;5.00;5.00;;;;;-147.17;100.00;-15917.19;5053885;28;51113;-58
2023/01/14 01:35:04;;;;;;;;;6.25;5.00;;;;;-147.17;100.00;-15917.19;5046528;28;51843;-58
2023/01/14 01:37:29;;;;;;;;;5.00;4.00;;;;;-147.17;100.00;-15917.19;5027785;28;51110;-58
2023/01/14 01:39:54;;;;;;;;;3.25;3.25;;;;;-147.17;100.00;-15917.19;5048497;28;51047;-59
2023/01/14 01:42:23;;;;;;;;;8.25;6.75;;;;;-147.17;100.00;-15917.19;5052883;28;50927;-59
2023/01/14 01:44:48;;;;;;;;;5.00;3.00;;;;;-147.17;100.00;-15917.19;5065945;27;53033;-59
2023/01/14 01:47:15;;;;;;;;;3.67;3.00;;;;;-147.17;100.00;-15917.19;5044901;28;50972;-59
2023/01/14 01:49:41;;;;;;;;;3.00;2.00;;;;;-147.17;100.00;-15917.19;5063706;28;51792;-59
2023/01/14 01:52:22;;;;;;;;;4.67;4.00;;;;;-147.17;100.00;-15917.19;5065219;28;51449;-59
2023/01/14 01:54:54;;;;;;;;;4.00;3.00;;;;;-147.17;100.00;-15917.19;5046568;28;53124;-59
2023/01/14 01:57:20;;;;;;;;;2.33;2.00;;;;;-147.17;100.00;-15917.19;5053128;28;51136;-58
2023/01/14 01:59:51;;;;;;;;;6.33;3.00;;;;;-147.17;100.00;-15917.19;5045811;28;51102;-59
2023/01/14 02:02:17;;;;;;;;;5.00;5.00;;;;;-147.17;100.00;-15917.19;5038442;28;51184;-58
2023/01/14 02:04:42;;;;;;;;;4.00;4.00;;;;;-147.17;100.00;-15917.19;5035919;28;51131;-59
2023/01/14 02:07:25;;;;;;;;;3.75;3.75;;;;;-147.17;100.00;-15917.19;5042286;28;51025;-58
2023/01/14 02:09:54;;;;;;;;;5.00;4.00;;;;;-147.17;100.00;-15917.19;5043124;28;51084;-58
2023/01/14 02:12:47;;;;;;;;;14.25;12.25;;;;;-147.17;100.00;-15917.19;5050894;28;51214;-58
2023/01/14 02:15:15;;;;;;;;;46.25;40.50;;;;;-147.17;100.00;-15917.19;5038209;28;52129;-58
2023/01/14 02:18:31;;;;;;;;;3.00;3.00;;;;;-147.17;100.00;-15917.19;5048389;28;50974;-58
2023/01/14 02:21:15;;;;;;;;;4.33;3.00;;;;;-147.17;100.00;-15917.19;5024673;28;51167;-58
2023/01/14 02:24:03;;;;;;;;;3.67;3.67;;;;;-147.17;100.00;-15917.19;5034648;28;51861;-59
2023/01/14 02:26:40;;;;;;;;;2.50;2.50;;;;;-147.17;100.00;-15917.19;5048417;28;52408;-58
2023/01/14 02:29:28;;;;;;;;;3.25;2.00;;;;;-147.17;100.00;-15917.19;5043366;28;51131;-59
2023/01/14 02:32:12;;;;;;;;;2.75;2.75;;;;;-147.17;100.00;-15917.19;5044288;28;51253;-59
2023/01/14 02:35:07;;;;;;;;;1.33;1.33;;;;;-147.17;100.00;-15917.19;5042705;28;51867;-59
2023/01/14 02:38:04;;;;;;;;;5.00;4.00;;;;;-147.17;100.00;-15917.19;5041713;28;53285;-58
2023/01/14 02:40:39;;;;;;;;;3.00;3.00;;;;;-147.17;100.00;-15917.19;5046096;28;51190;-60
2023/01/14 02:46:24;;;;;;;;;2.00;1.00;;;;;-147.17;100.00;-15917.19;5044423;28;51025;-58
2023/01/14 02:48:51;;;;;;;;;2.00;1.33;;;;;-147.17;100.00;-15917.19;5037619;28;51252;-58
2023/01/14 02:51:18;;;;;;;;;3.00;2.67;;;;;-147.17;100.00;-15917.19;5046349;28;51102;-60
2023/01/14 02:53:43;;;;;;;;;2.00;2.00;;;;;-147.17;100.00;-15917.19;5044859;28;51193;-59
2023/01/14 02:56:10;;;;;;;;;1.00;1.00;;;;;-147.17;100.00;-15917.19;5050485;28;51117;-59
2023/01/14 02:58:50;;;;;;;;;1.00;1.00;;;;;-147.17;100.00;-15917.19;5048170;28;52143;-59
2023/01/14 03:01:52;;;;;;;;;2.00;2.00;;;;;-147.17;100.00;-15917.19;5045478;28;51171;-59
2023/01/14 03:05:03;;;;;;;;;1.67;1.67;;;;;-147.17;100.00;-15917.19;5048066;28;51156;-59
2023/01/14 03:07:45;;;;;;;;;1.00;1.00;;;;;-147.17;100.00;-15917.19;5040187;28;50967;-59
2023/01/14 03:10:21;;;;;;;;;1.00;1.00;;;;;-147.17;100.00;-15917.19;5039035;28;51194;-59
2023/01/14 03:13:05;;;;;;;;;1.00;0.67;;;;;-147.17;100.00;-15917.19;5035843;28;51117;-58
2023/01/14 03:15:57;;;;;;;;;0.00;0.00;;;;;-147.17;100.00;-15917.19;5042212;28;51288;-57
2023/01/14 03:18:38;;;;;;;;;1.00;1.00;;;;;-147.17;100.00;-15917.19;5049731;28;51196;-57
2023/01/14 03:21:12;;;;;;;;;1.00;1.00;;;;;-147.17;100.00;-15917.19;5047378;28;51800;-56
2023/01/14 03:23:50;;;;;;;;;2.67;1.00;;;;;-147.17;100.00;-15917.19;5038524;28;51149;-58
2023/01/14 03:26:15;;;;;;;;;0.00;0.00;;;;;-147.17;100.00;-15917.19;5039878;28;51278;-57
2023/01/14 03:28:47;;;;;;;;;1.00;1.00;;;;;-147.17;100.00;-15917.19;5045155;28;52979;-57
2023/01/14 03:31:16;;;;;;;;;0.00;0.00;;;;;-147.17;100.00;-15917.19;5043935;28;51938;-57
2023/01/14 03:33:54;;;;;;;;;1.00;1.00;;;;;-147.17;100.00;-15917.19;5044156;28;51366;-58
2023/01/14 03:36:27;;;;;;;;;1.00;0.67;;;;;-147.17;100.00;-15917.19;5045158;28;51114;-57
2023/01/14 03:38:59;;;;;;;;;1.33;1.00;;;;;-147.17;100.00;-15917.19;5042738;28;51167;-57
2023/01/14 03:44:19;;;;;;;;;6.00;5.50;;;;;-147.17;100.00;-15917.19;5040458;28;51086;-56
2023/01/14 03:46:44;;;;;;;;;3.00;2.00;;;;;-147.17;100.00;-15917.19;5032408;28;51252;-58
2023/01/14 03:49:09;;;;;;;;;2.00;2.00;;;;;-147.17;100.00;-15917.19;5043797;28;51102;-59
2023/01/14 03:51:46;;;;;;;;;2.33;1.00;;;;;-147.17;100.00;-15917.19;5041476;28;53068;-57
2023/01/14 03:54:22;;;;;;;;;2.00;2.00;;;;;-147.17;100.00;-15917.19;5040122;28;51267;-56
2023/01/14 03:57:05;;;;;;;;;1.67;1.67;;;;;-147.17;100.00;-15917.19;5043112;28;51247;-57
2023/01/14 03:59:46;;;;;;;;;1.33;0.67;;;;;-147.17;100.00;-15917.19;5041464;28;51389;-57
2023/01/14 04:02:13;;;;;;;;;2.00;1.00;;;;;-147.17;100.00;-15917.19;5041404;28;51692;-57
2023/01/14 04:04:39;;;;;;;;;1.00;1.00;;;;;-147.17;100.00;-15917.19;5038652;28;52010;-57
2023/01/14 04:07:05;;;;;;;;;2.00;1.00;;;;;-147.17;100.00;-15917.19;5045324;28;51121;-57
2023/01/14 04:09:30;;;;;;;;;4.00;3.00;;;;;-147.17;100.00;-15917.19;5037529;28;52594;-57
2023/01/14 04:11:56;;;;;;;;;2.33;1.00;;;;;-147.17;100.00;-15917.19;5042511;28;52163;-57
2023/01/14 04:17:05;;;;;;;;;1.67;1.00;;;;;-147.17;100.00;-15917.19;5041231;28;50940;-57
2023/01/14 04:19:31;;;;;;;;;3.00;1.00;;;;;-147.17;100.00;-15917.19;5046262;28;51144;-56
2023/01/14 04:21:56;;;;;;;;;1.67;1.00;;;;;-147.17;100.00;-15917.19;5043989;28;51722;-56
2023/01/14 04:24:21;;;;;;;;;1.00;1.00;;;;;-147.17;100.00;-15917.19;5052057;28;51049;-58
2023/01/14 04:26:47;;;;;;;;;0.67;0.67;;;;;-147.17;100.00;-15917.19;5046840;28;51137;-57
2023/01/14 04:29:13;;;;;;;;;1.33;0.67;;;;;-147.17;100.00;-15917.19;5051791;28;51204;-57
2023/01/14 04:31:38;;;;;;;;;2.00;2.00;;;;;-147.17;100.00;-15917.19;5047928;28;52818;-57
2023/01/14 04:34:03;;;;;;;;;2.00;1.67;;;;;-147.17;100.00;-15917.19;5050002;28;51233;-57
2023/01/14 04:36:29;;;;;;;;;2.00;1.67;;;;;-147.17;100.00;-15917.19;5042632;28;51112;-57
2023/01/14 04:38:54;;;;;;;;;2.00;1.00;;;;;-147.17;100.00;-15917.19;5052119;28;51066;-59
2023/01/14 04:44:03;;;;;;;;;2.33;1.33;;;;;-147.17;100.00;-15917.19;5046339;28;51287;-56
2023/01/14 04:46:28;;;;;;;;;4.67;1.67;;;;;-147.17;100.00;-15917.19;5053013;28;51422;-57
2023/01/14 04:48:54;;;;;;;;;3.33;2.33;;;;;-147.17;100.00;-15917.19;5051284;28;51156;-57
2023/01/14 04:51:19;;;;;;;;;4.33;2.33;;;;;-147.17;100.00;-15917.19;5041289;28;53855;-57
2023/01/14 04:53:44;;;;;;;;;3.00;2.00;;;;;-147.17;100.00;-15917.19;5051746;28;51325;-57
2023/01/14 04:56:10;;;;;;;;;3.00;2.00;;;;;-147.17;100.00;-15917.19;5041727;28;51126;-57
2023/01/14 04:58:35;;;;;;;;;3.33;2.00;;;;;-147.17;100.00;-15917.19;5048881;28;51115;-57
2023/01/14 05:01:00;;;;;;;;;2.67;2.67;;;;;-147.17;100.00;-15917.19;5050092;28;51177;-58
2023/01/14 05:03:26;;;;;;;;;3.67;1.00;;;;;-147.17;100.00;-15917.19;5041333;28;51728;-58
2023/01/14 05:05:51;;;;;;;;;3.67;1.00;;;;;-147.17;100.00;-15917.19;5039190;28;51124;-58
2023/01/14 05:08:18;;;;;;;;;4.67;2.00;;;;;-147.17;100.00;-15917.19;5050879;28;51384;-58
2023/01/14 05:10:44;;;;;;;;;3.00;2.00;;;;;-147.17;100.00;-15917.19;5048767;28;53137;-58
2023/01/14 05:13:09;;;;;;;;;3.00;2.00;;;;;-147.17;100.00;-15917.19;5051056;28;51231;-57
2023/01/14 05:15:40;;;;;;;;;2.00;2.00;;;;;-147.17;100.00;-15917.19;5051867;28;51476;-57
2023/01/14 05:18:07;;;;;;;;;1.67;1.00;;;;;-147.17;100.00;-15917.19;5042336;28;52225;-58
2023/01/14 05:20:32;;;;;;;;;0.00;0.00;;;;;-147.17;100.00;-15917.19;5045673;28;51236;-57
2023/01/14 05:23:04;;;;;;;;;2.67;1.00;;;;;-147.17;100.00;-15917.19;5039055;28;52857;-56
2023/01/14 05:25:31;;;;;;;;;2.00;2.00;;;;;-147.17;100.00;-15917.19;5049076;28;51108;-57
2023/01/14 05:28:04;;;;;;;;;1.00;1.00;;;;;-147.17;100.00;-15917.19;5050236;28;50936;-58
2023/01/14 05:30:30;;;;;;;;;3.00;2.00;;;;;-147.17;100.00;-15917.19;5048890;28;51790;-58
2023/01/14 05:32:56;;;;;;;;;1.33;1.00;;;;;-147.17;100.00;-15917.19;5052152;28;51043;-56
2023/01/14 05:35:22;;;;;;;;;2.00;1.00;;;;;-147.17;100.00;-15917.19;5050054;28;51156;-58
2023/01/14 05:37:47;;;;;;;;;4.33;1.67;;;;;-147.17;100.00;-15917.19;5050928;28;51367;-58
2023/01/14 05:40:13;;;;;;;;;2.00;2.00;;;;;-147.17;100.00;-15917.19;5043630;28;51144;-59
2023/01/14 05:45:37;;;;;;;;;2.33;1.00;;;;;-147.17;100.00;-15917.19;5043124;28;51269;-60
2023/01/14 05:48:07;;;;;;;;;2.00;1.00;;;;;-147.17;100.00;-15917.19;5049862;28;50973;-58
2023/01/14 05:50:33;;;;;;;;;2.67;2.00;;;;;-147.17;100.00;-15917.19;5044274;28;52227;-58
2023/01/14 05:52:58;;;;;;;;;1.00;0.33;;;;;-147.17;100.00;-15917.19;5045159;28;51683;-58
2023/01/14 05:55:24;;;;;;;;;4.00;2.00;;;;;-147.17;100.00;-15917.19;5049746;28;51033;-58
2023/01/14 05:57:49;;;;;;;;;1.00;1.00;;;;;-147.17;100.00;-15917.19;5044865;28;51095;-58
2023/01/14 06:08:27;;;;;;;;;1.33;1.00;;;;;-147.17;100.00;-15917.19;5045189;28;51189;-58
2023/01/14 06:10:53;;;;;;;;;2.00;1.00;;;;;-147.17;100.00;-15917.19;5050518;28;51240;-61
2023/01/14 06:13:21;;;;;;;;;2.00;1.00;;;;;-147.17;100.00;-15917.19;5046901;28;51093;-57
2023/01/14 06:15:46;;;;;;;;;1.00;1.00;;;;;-147.17;100.00;-15917.19;5055212;28;51537;-57
2023/01/14 06:18:21;;;;;;;;;5.00;2.00;;;;;-147.17;100.00;-15917.19;5046498;28;51120;-58
2023/01/14 06:20:46;;;;;;;;;1.00;1.00;;;;;-147.17;100.00;-15917.19;5044941;28;52012;-58
2023/01/14 06:23:13;;;;;;;;;3.00;2.00;;;;;-147.17;100.00;-15917.19;5053034;28;51233;-58
2023/01/14 06:25:41;;;;;;;;;1.67;1.00;;;;;-147.17;100.00;-15917.19;5048092;28;51176;-58
2023/01/14 06:28:06;;;;;;;;;0.67;0.00;;;;;-147.17;100.00;-15917.19;5056857;28;51411;-58
2023/01/14 06:30:32;;;;;;;;;1.00;0.00;;;;;-147.17;100.00;-15917.19;5053435;28;51170;-59
2023/01/14 06:32:57;;;;;;;;;1.00;1.00;;;;;-147.17;100.00;-15917.19;5044958;28;51261;-58
2023/01/14 06:35:23;;;;;;;;;1.00;1.00;;;;;-147.17;100.00;-15917.19;5061343;28;51197;-59
2023/01/14 06:37:48;;;;;;;;;1.00;0.00;;;;;-147.17;100.00;-15917.19;5052856;27;51232;-58
2023/01/14 06:40:14;;;;;;;;;2.33;1.33;;;;;-147.17;100.00;-15917.19;5049755;28;54037;-58
2023/01/14 06:42:41;;;;;;;;;1.00;1.00;;;;;-147.17;100.00;-15917.19;5061915;28;51103;-58
2023/01/14 06:45:07;;;;;;;;;0.33;0.33;;;;;-147.17;100.00;-15917.19;5044717;28;50939;-58
2023/01/14 06:47:33;;;;;;;;;1.00;0.67;;;;;-147.17;100.00;-15917.19;5047789;28;51204;-59
2023/01/14 06:49:59;;;;;;;;;1.67;1.67;;;;;-147.17;100.00;-15917.19;5052980;28;52582;-57
2023/01/14 06:52:24;;;;;;;;;1.00;0.00;;;;;-147.17;100.00;-15917.19;5060031;27;51162;-58
2023/01/14 06:54:51;;;;;;;;;3.00;2.00;;;;;-147.17;100.00;-15917.19;5041739;28;51337;-57
2023/01/14 06:57:17;;;;;;;;;1.00;1.00;;;;;-147.17;100.00;-15917.19;5053235;28;51116;-59
2023/01/14 06:59:42;;;;;;;;;1.00;1.00;;;;;-147.17;100.00;-15917.19;5053100;27;51134;-57
2023/01/14 07:02:10;;;;;;;;;2.00;2.00;;;;;-147.17;100.00;-15917.19;5047024;28;51075;-57
2023/01/14 07:04:36;;;;;;;;;1.33;1.00;;;;;-147.17;100.00;-15917.19;5040484;28;51113;-58
2023/01/14 07:07:01;;;;;;;;;2.00;1.00;;;;;-147.17;100.00;-15917.19;5056088;28;51346;-59
2023/01/14 07:09:27;;;;;;;;;1.00;1.00;;;;;-147.17;100.00;-15917.19;5052331;27;52003;-57
2023/01/14 07:11:52;;;;;;;;;1.00;0.00;;;;;-147.17;100.00;-15917.19;5049737;28;51147;-58
2023/01/14 07:14:17;;;;;;;;;2.00;2.00;;;;;-147.17;100.00;-15917.19;5049690;28;51111;-58
2023/01/14 07:16:43;;;;;;;;;1.33;0.67;;;;;-147.17;100.00;-15917.19;5055620;27;51288;-58
2023/01/14 07:19:08;;;;;;;;;3.00;2.67;;;;;-147.17;100.00;-15917.19;5043667;28;52293;-58
2023/01/14 07:21:33;;;;;;;;;1.00;1.00;;;;;-147.17;100.00;-15917.19;5054475;28;51116;-58
2023/01/14 07:23:59;;;;;;;;;3.00;2.00;;;;;-147.17;100.00;-15917.19;5044798;28;51129;-57
2023/01/14 07:26:24;;;;;;;;;1.00;1.00;;;;;-147.17;100.00;-15917.19;5042415;28;51207;-58
2023/01/14 07:28:49;;;;;;;;;2.00;2.00;;;;;-147.17;100.00;-15917.19;5047165;27;51669;-58
2023/01/14 07:31:16;;;;;;;;;1.00;1.00;;;;;-147.17;100.00;-15917.19;5047368;28;51079;-58
2023/01/14 07:33:41;;;;;;;;;2.00;2.00;;;;;-147.17;100.00;-15917.19;5053632;27;51292;-58
2023/01/14 07:36:07;;;;;;;;;1.00;1.00;;;;;-147.17;100.00;-15917.19;5048755;28;51379;-58
2023/01/14 07:38:32;;;;;;;;;2.00;0.67;;;;;-147.17;100.00;-15917.19;5047524;28;52530;-57
2023/01/14 07:40:59;;;;;;;;;3.33;2.00;;;;;-147.17;100.00;-15917.19;5063598;27;51484;-58
2023/01/14 07:43:27;;;;;;;;;1.67;1.00;;;;;-147.17;100.00;-15917.19;5053834;28;52940;-58
2023/01/14 07:45:58;;;;;;;;;1.00;1.00;;;;;-147.17;100.00;-15917.19;5044455;28;51100;-58
2023/01/14 07:48:23;;;;;;;;;1.33;1.00;;;;;-147.17;100.00;-15917.19;5050436;28;52706;-58
2023/01/14 07:50:49;;;;;;;;;2.00;2.00;;;;;-147.17;100.00;-15917.19;5050848;28;50911;-58
2023/01/14 07:53:14;;;;;;;;;2.00;1.00;;;;;-147.17;100.00;-15917.19;5060058;28;51053;-58
2023/01/14 07:55:39;;;;;;;;;2.00;1.00;;;;;-147.17;100.00;-15917.19;5059055;28;51090;-58
2023/01/14 07:58:05;;;;;;;;;3.33;3.00;;;;;-147.17;100.00;-15917.19;5053233;28;51124;-58
2023/01/14 08:00:30;;;;;;;;;3.25;3.00;;;;;-147.17;100.00;-15917.19;5054608;28;51634;-59
2023/01/14 08:02:56;;;;;;;;;3.00;3.00;;;;;-147.17;100.00;-15917.19;5060968;27;51203;-58
2023/01/14 08:05:21;;;;;;;;;2.75;2.50;;;;;-147.17;100.00;-15917.19;5050634;28;51118;-58
2023/01/14 08:07:47;;;;;;;;;1.00;1.00;;;;;-147.17;100.00;-15917.19;5058857;28;51101;-58
2023/01/14 08:10:12;;;;;;;;;1.67;1.67;;;;;-147.17;100.00;-15917.19;5050543;28;51243;-58
2023/01/14 08:12:38;;;;;;;;;3.00;1.33;;;;;-147.17;100.00;-15917.19;5048469;27;51020;-57
2023/01/14 08:15:05;;;;;;;;;2.00;2.00;;;;;-147.17;100.00;-15917.19;5045698;28;51434;-57
2023/01/14 08:17:30;;;;;;;;;1.67;1.67;;;;;-147.17;100.00;-15917.19;5054229;28;51090;-59
2023/01/14 08:19:56;;;;;;;;;1.00;1.00;;;;;-147.17;100.00;-15917.19;5051458;28;51269;-59
2023/01/14 08:22:21;;;;;;;;;2.67;2.00;;;;;-147.17;100.00;-15917.19;5054701;28;51493;-59
2023/01/14 08:24:46;;;;;;;;;1.33;0.67;;;;;-147.17;100.00;-15917.19;5058507;28;51111;-56
2023/01/14 08:27:12;;;;;;;;;1.00;0.33;;;;;-147.17;100.00;-15917.19;5050967;28;51404;-57
2023/01/14 08:29:37;;;;;;;;;2.00;1.00;;;;;-147.17;100.00;-15917.19;5049573;28;51181;-58
2023/01/14 08:32:03;;;;;;;;;0.67;0.67;;;;;-147.17;100.00;-15917.19;5054888;28;51162;-57
2023/01/14 08:34:29;;;;;;;;;3.00;1.00;;;;;-147.17;100.00;-15917.19;5043880;27;51060;-59
2023/01/14 08:36:54;;;;;;;;;1.67;1.67;;;;;-147.17;100.00;-15917.19;5048343;28;51108;-57
2023/01/14 08:39:19;;;;;;;;;2.00;1.67;;;;;-147.17;100.00;-15917.19;5053384;28;51317;-57
2023/01/14 08:41:45;;;;;;;;;2.00;1.33;;;;;-147.17;100.00;-15917.19;5051300;28;51376;-58
2023/01/14 08:44:10;;;;;;;;;1.67;1.00;;;;;-147.17;100.00;-15917.19;5048433;27;51311;-58
2023/01/14 08:46:37;;;;;;;;;1.33;1.33;;;;;-147.17;100.00;-15917.19;5040739;28;51480;-58
2023/01/14 08:49:03;;;;;;;;;2.00;1.00;;;;;-147.17;100.00;-15917.19;5042682;28;51056;-58
2023/01/14 08:51:30;;;;;;;;;0.00;0.00;;;;;-147.17;100.00;-15917.19;5045797;28;51326;-57
2023/01/14 08:53:55;;;;;;;;;1.00;1.00;;;;;-147.17;100.00;-15917.19;5056595;28;51458;-59
2023/01/14 08:56:21;;;;;;;;;1.00;0.00;;;;;-147.17;100.00;-15917.19;5030744;28;52951;-59
2023/01/14 08:58:46;;;;;;;;;1.67;1.00;;;;;-147.17;100.00;-15917.19;5054001;28;51133;-57
2023/01/14 09:01:13;;;;;;;;;1.00;1.00;;;;;-147.17;100.00;-15917.19;5042043;28;51191;-60
2023/01/14 09:03:40;;;;;;;;;3.67;2.67;;;;;-147.17;100.00;-15917.19;5051879;28;51060;-57
2023/01/14 09:06:09;;;;;;;;;2.00;1.00;;;;;-147.17;100.00;-15917.19;5046851;28;51203;-58
2023/01/14 09:17:06;;;;;;;;;2.33;1.33;;;;;-147.17;100.00;-15917.19;5042880;28;52808;-58
2023/01/14 09:19:45;;;;;;;;;1.00;1.00;;;;;-147.17;100.00;-15917.19;5041251;28;51136;-58
2023/01/14 09:22:14;;;;;;;;;1.00;1.00;;;;;-147.17;100.00;-15917.19;5049749;28;51148;-57
2023/01/14 09:24:39;;;;;;;;;1.00;1.00;;;;;-147.17;100.00;-15917.19;5054271;28;51539;-58
2023/01/14 09:27:04;;;;;;;;;1.00;0.33;;;;;-147.17;100.00;-15917.19;5056832;28;52054;-56
2023/01/14 09:29:30;;;;;;;;;0.67;0.67;;;;;-147.17;100.00;-15917.19;5039759;28;51013;-57
2023/01/14 09:31:55;;;;;;;;;0.67;0.67;;;;;-147.17;100.00;-15917.19;5048570;28;51054;-57
2023/01/14 09:34:20;;;;;;;;;1.33;1.00;;;;;-147.17;100.00;-15917.19;5053603;28;51059;-58
2023/01/14 09:36:46;;;;;;;;;1.00;1.00;;;;;-147.17;100.00;-15917.19;5062137;28;51121;-58
2023/01/14 09:39:11;;;;;;;;;0.33;0.00;;;;;-147.17;100.00;-15917.19;5041100;28;50901;-59
2023/01/14 09:41:46;;;;;;;;;1.67;1.00;;;;;-147.17;100.00;-15917.19;5050902;28;51219;-59
2023/01/14 09:44:12;;;;;;;;;1.00;1.00;;;;;-147.17;100.00;-15917.19;5045219;28;50998;-59
2023/01/14 09:46:37;;;;;;;;;1.33;1.00;;;;;-147.17;100.00;-15917.19;5059204;28;51366;-59
2023/01/14 09:49:05;;;;;;;;;1.33;1.00;;;;;-147.17;100.00;-15917.19;5055497;28;51310;-58
2023/01/14 09:51:58;;;;;;;;;2.00;1.00;;;;;-147.17;100.00;-15917.19;5053826;28;51083;-58
2023/01/14 09:54:57;;;;;;;;;2.33;1.00;;;;;-147.17;100.00;-15917.19;5045513;28;51427;-59
2023/01/14 09:57:41;;;;;;;;;2.00;1.33;;;;;-147.17;100.00;-15917.19;5046494;28;52488;-58
2023/01/14 10:00:24;;;;;;;;;1.33;1.33;;;;;-147.17;100.00;-15917.19;5054117;28;51176;-58
2023/01/14 10:03:01;;;;;;;;;0.00;0.00;;;;;-147.17;100.00;-15917.19;5048574;28;51168;-58
2023/01/14 10:05:29;;;;;;;;;19.25;17.50;;;;;-147.17;100.00;-15917.19;5047450;28;51149;-58
2023/01/14 10:08:02;;;;;;;;;14.50;14.00;;;;;-147.17;100.00;-15917.19;5057784;28;52414;-58
2023/01/14 10:10:37;;;;;;;;;1.00;1.00;;;;;-147.17;100.00;-15917.19;5041930;28;51026;-59
2023/01/14 10:13:10;;;;;;;;;3.67;3.00;;;;;-147.17;100.00;-15917.19;5041602;28;51110;-59
2023/01/14 10:15:41;;;;;;;;;1.67;1.67;;;;;-147.17;100.00;-15917.19;5055239;28;51187;-59
2023/01/14 10:18:12;;;;;;;;;2.00;2.00;;;;;-147.17;100.00;-15917.19;5042553;28;52833;-59
2023/01/14 10:20:47;;;;;;;;;2.67;2.67;;;;;-147.17;100.00;-15917.19;5051682;28;51027;-59
2023/01/14 10:23:17;;;;;;;;;2.00;2.00;;;;;-147.17;100.00;-15917.19;5044500;28;51289;-59
2023/01/14 10:25:51;;;;;;;;;2.00;2.00;;;;;-147.17;100.00;-15917.19;5052880;28;51325;-58
2023/01/14 10:28:24;;;;;;;;;1.33;1.00;;;;;-147.17;100.00;-15917.19;5060115;27;51388;-59
2023/01/14 10:30:50;;;;;;;;;2.00;2.00;;;;;-147.17;100.00;-15917.19;5047952;28;51198;-58
2023/01/14 10:33:18;;;;;;;;;4.67;3.00;;;;;-147.17;100.00;-15917.19;5045789;28;51550;-58
2023/01/14 10:35:47;;;;;;;;;3.33;3.00;;;;;-147.17;100.00;-15917.19;5039859;28;51565;-57
2023/01/14 10:38:19;;;;;;;;;1.00;0.00;;;;;-147.17;100.00;-15917.19;5046348;28;51922;-58
2023/01/14 10:40:47;;;;;;;;;2.33;1.33;;;;;-147.17;100.00;-15917.19;5052256;28;50998;-58
2023/01/14 10:43:29;;;;;;;;;1.67;1.67;;;;;-147.17;100.00;-15917.19;5043717;28;51141;-58
2023/01/14 10:45:55;;;;;;;;;1.33;1.33;;;;;-147.17;100.00;-15917.19;5047484;28;51306;-59
2023/01/14 10:48:24;;;;;;;;;3.00;3.00;;;;;-147.17;100.00;-15917.19;5047585;28;52480;-57
2023/01/14 10:50:50;;;;;;;;;2.67;2.00;;;;;-147.17;100.00;-15917.19;5036653;28;50846;-58
2023/01/14 10:53:19;;;;;;;;;1.33;1.33;;;;;-147.17;100.00;-15917.19;5046628;28;51226;-58
2023/01/14 10:55:57;;;;;;;;;1.33;1.00;;;;;-147.17;100.00;-15917.19;5037949;28;51261;-58
2023/01/14 10:58:33;;;;;;;;;3.33;3.00;;;;;-147.17;100.00;-15917.19;5048867;28;51084;-58
2023/01/14 11:01:05;;;;;;;;;2.00;2.00;;;;;-147.17;100.00;-15917.19;5058674;27;51128;-59
2023/01/14 11:03:34;;;;;;;;;1.00;1.00;;;;;-147.17;100.00;-15917.19;5052545;28;51045;-59
2023/01/14 11:06:04;;;;;;;;;2.00;2.00;;;;;-147.17;100.00;-15917.19;5047300;28;51190;-60
2023/01/14 11:08:35;;;;;;;;;2.00;2.00;;;;;-147.17;100.00;-15917.19;5042143;28;51197;-57
2023/01/14 11:11:07;;;;;;;;;2.00;2.00;;;;;-147.17;100.00;-15917.19;5050428;27;50979;-58
2023/01/14 11:13:41;;;;;;;;;2.33;2.00;;;;;-147.17;100.00;-15917.19;5046421;28;51119;-59
2023/01/14 11:16:29;;;;;;;;;2.00;2.00;;;;;-147.17;100.00;-15917.19;5037594;28;51159;-61
2023/01/14 11:18:58;;;;;;;;;1.00;1.00;;;;;-147.17;100.00;-15917.19;5056183;28;54224;-62
2023/01/14 11:21:26;;;;;;;;;2.67;2.67;;;;;-147.17;100.00;-15917.19;5048813;27;51191;-62
2023/01/14 11:24:21;;;;;;;;;2.33;2.00;;;;;-147.17;100.00;-15917.19;5049956;28;51198;-61
2023/01/14 11:26:46;;;;;;;;;3.67;3.00;;;;;-147.17;100.00;-15917.19;5034809;28;51344;-62
2023/01/14 11:29:25;;;;;;;;;8.67;8.00;;;;;-147.17;100.00;-15917.19;5040971;28;51867;-61
2023/01/14 11:32:12;;;;;;;;;2.00;1.00;;;;;-147.17;100.00;-15917.19;5040531;28;51066;-62
2023/01/14 11:34:56;;;;;;;;;2.67;2.00;;;;;-147.17;100.00;-15917.19;5046693;28;51122;-62
2023/01/14 11:37:37;;;;;;;;;3.00;3.00;;;;;-147.17;100.00;-15917.19;5058006;28;51099;-62
2023/01/14 11:40:04;;;;;;;;;3.00;2.33;;;;;-147.17;100.00;-15917.19;5049131;28;51778;-62
2023/01/14 11:42:38;;;;;;;;;3.00;3.00;;;;;-147.17;100.00;-15917.19;5056261;28;51036;-61
2023/01/14 11:45:12;;;;;;;;;2.67;2.00;;;;;-147.17;100.00;-15917.19;5047015;28;51096;-66